sensor_id;sensor_type;location;lat;lon;timestamp;temperature;humidity
57218;DHT22;43078;52.972;6.482;2023-04-01T00:02:07;11.00;99.90
57218;DHT22;43078;52.972;6.482;2023-04-01T00:04:33;11.00;99.90
57218;DHT22;43078;52.972;6.482;2023-04-01T00:06:58;11.00;99.90
57218;DHT22;43078;52.972;6.482;2023-04-01T00:09:25;11.00;99.90
57218;DHT22;43078;52.972;6.482;2023-04-01T00:11:51;11.00;99.90
57218;DHT22;43078;52.972;6.482;2023-04-01T00:14:17;11.00;99.90
57218;DHT22;43078;52.972;6.482;2023-04-01T00:16:43;11.00;99.90
57218;DHT22;43078;52.972;6.482;2023-04-01T00:19:09;11.00;99.90
57218;DHT22;43078;52.972;6.482;2023-04-01T00:21:35;11.00;99.90
57218;DHT22;43078;52.972;6.482;2023-04-01T00:24:02;11.00;99.90
57218;DHT22;43078;52.972;6.482;2023-04-01T00:26:28;11.00;99.90
57218;DHT22;43078;52.972;6.482;2023-04-01T00:28:53;11.00;99.90
57218;DHT22;43078;52.972;6.482;2023-04-01T00:31:19;11.00;99.90
57218;DHT22;43078;52.972;6.482;2023-04-01T00:33:45;11.00;99.90
57218;DHT22;43078;52.972;6.482;2023-04-01T00:36:17;10.90;99.90
57218;DHT22;43078;52.972;6.482;2023-04-01T00:38:44;11.00;99.90
57218;DHT22;43078;52.972;6.482;2023-04-01T00:41:11;10.90;99.90
57218;DHT22;43078;52.972;6.482;2023-04-01T00:43:46;10.90;99.90
57218;DHT22;43078;52.972;6.482;2023-04-01T00:46:12;10.90;99.90
57218;DHT22;43078;52.972;6.482;2023-04-01T00:48:49;10.90;99.90
57218;DHT22;43078;52.972;6.482;2023-04-01T00:51:20;10.90;99.90
57218;DHT22;43078;52.972;6.482;2023-04-01T00:53:51;10.90;99.90
57218;DHT22;43078;52.972;6.482;2023-04-01T00:56:22;10.90;99.90
57218;DHT22;43078;52.972;6.482;2023-04-01T00:59:10;10.90;99.90
57218;DHT22;43078;52.972;6.482;2023-04-01T01:01:37;10.90;99.90
57218;DHT22;43078;52.972;6.482;2023-04-01T01:04:03;10.90;99.90
57218;DHT22;43078;52.972;6.482;2023-04-01T01:09:39;10.90;99.90
57218;DHT22;43078;52.972;6.482;2023-04-01T01:12:13;10.90;99.90
57218;DHT22;43078;52.972;6.482;2023-04-01T01:36:16;10.80;99.90
57218;DHT22;43078;52.972;6.482;2023-04-01T01:38:44;10.80;99.90
57218;DHT22;43078;52.972;6.482;2023-04-01T01:41:12;10.90;99.90
57218;DHT22;43078;52.972;6.482;2023-04-01T01:43:43;10.80;99.90
57218;DHT22;43078;52.972;6.482;2023-04-01T01:46:14;10.80;99.90
57218;DHT22;43078;52.972;6.482;2023-04-01T01:48:42;10.80;99.90
57218;DHT22;43078;52.972;6.482;2023-04-01T01:51:09;10.80;99.90
57218;DHT22;43078;52.972;6.482;2023-04-01T01:53:35;10.80;99.90
57218;DHT22;43078;52.972;6.482;2023-04-01T01:56:01;10.80;99.90
57218;DHT22;43078;52.972;6.482;2023-04-01T01:58:32;10.80;99.90
57218;DHT22;43078;52.972;6.482;2023-04-01T02:01:03;10.80;99.90
57218;DHT22;43078;52.972;6.482;2023-04-01T02:03:35;10.80;99.90
57218;DHT22;43078;52.972;6.482;2023-04-01T02:06:04;10.80;99.90
57218;DHT22;43078;52.972;6.482;2023-04-01T02:08:35;10.80;99.90
57218;DHT22;43078;52.972;6.482;2023-04-01T02:11:07;10.80;99.90
57218;DHT22;43078;52.972;6.482;2023-04-01T02:13:38;10.70;99.90
57218;DHT22;43078;52.972;6.482;2023-04-01T02:16:11;10.80;99.90
57218;DHT22;43078;52.972;6.482;2023-04-01T02:18:39;10.70;99.90
57218;DHT22;43078;52.972;6.482;2023-04-01T02:21:07;10.70;99.90
57218;DHT22;43078;52.972;6.482;2023-04-01T02:23:35;10.70;99.90
57218;DHT22;43078;52.972;6.482;2023-04-01T02:26:02;10.70;99.90
57218;DHT22;43078;52.972;6.482;2023-04-01T02:28:30;10.70;99.90
57218;DHT22;43078;52.972;6.482;2023-04-01T02:30:58;10.70;99.90
57218;DHT22;43078;52.972;6.482;2023-04-01T02:33:26;10.70;99.90
57218;DHT22;43078;52.972;6.482;2023-04-01T02:35:52;10.70;99.90
57218;DHT22;43078;52.972;6.482;2023-04-01T02:38:18;10.70;99.90
57218;DHT22;43078;52.972;6.482;2023-04-01T02:40:47;10.70;99.90
57218;DHT22;43078;52.972;6.482;2023-04-01T02:43:13;10.70;99.90
57218;DHT22;43078;52.972;6.482;2023-04-01T02:45:38;10.70;99.90
57218;DHT22;43078;52.972;6.482;2023-04-01T02:48:04;10.70;99.90
57218;DHT22;43078;52.972;6.482;2023-04-01T02:50:30;10.70;99.90
57218;DHT22;43078;52.972;6.482;2023-04-01T02:52:56;10.70;99.90
57218;DHT22;43078;52.972;6.482;2023-04-01T02:55:21;10.60;99.90
57218;DHT22;43078;52.972;6.482;2023-04-01T02:57:47;10.70;99.90
57218;DHT22;43078;52.972;6.482;2023-04-01T03:00:13;10.60;99.90
57218;DHT22;43078;52.972;6.482;2023-04-01T03:02:39;10.60;99.90
57218;DHT22;43078;52.972;6.482;2023-04-01T03:05:06;10.60;99.90
57218;DHT22;43078;52.972;6.482;2023-04-01T03:07:32;10.60;99.90
57218;DHT22;43078;52.972;6.482;2023-04-01T03:09:58;10.60;99.90
57218;DHT22;43078;52.972;6.482;2023-04-01T03:12:24;10.70;99.90
57218;DHT22;43078;52.972;6.482;2023-04-01T03:14:49;10.60;99.90
57218;DHT22;43078;52.972;6.482;2023-04-01T03:17:15;10.60;99.90
57218;DHT22;43078;52.972;6.482;2023-04-01T03:19:41;10.60;99.90
57218;DHT22;43078;52.972;6.482;2023-04-01T03:22:07;10.60;99.90
57218;DHT22;43078;52.972;6.482;2023-04-01T03:24:33;10.60;99.90
57218;DHT22;43078;52.972;6.482;2023-04-01T03:26:58;10.60;99.90
57218;DHT22;43078;52.972;6.482;2023-04-01T03:29:24;10.60;99.90
57218;DHT22;43078;52.972;6.482;2023-04-01T03:31:50;10.60;99.90
57218;DHT22;43078;52.972;6.482;2023-04-01T03:34:15;10.60;99.90
57218;DHT22;43078;52.972;6.482;2023-04-01T03:36:41;10.60;99.90
57218;DHT22;43078;52.972;6.482;2023-04-01T03:39:06;10.60;99.90
57218;DHT22;43078;52.972;6.482;2023-04-01T03:41:32;10.60;99.90
57218;DHT22;43078;52.972;6.482;2023-04-01T03:43:58;10.60;99.90
57218;DHT22;43078;52.972;6.482;2023-04-01T03:46:23;10.70;99.90
57218;DHT22;43078;52.972;6.482;2023-04-01T03:48:49;10.70;99.90
57218;DHT22;43078;52.972;6.482;2023-04-01T03:51:15;10.60;99.90
57218;DHT22;43078;52.972;6.482;2023-04-01T03:53:40;10.60;99.90
57218;DHT22;43078;52.972;6.482;2023-04-01T03:56:07;10.60;99.90
57218;DHT22;43078;52.972;6.482;2023-04-01T03:58:34;10.60;99.90
57218;DHT22;43078;52.972;6.482;2023-04-01T04:00:59;10.60;99.90
57218;DHT22;43078;52.972;6.482;2023-04-01T04:03:25;10.60;99.90
57218;DHT22;43078;52.972;6.482;2023-04-01T04:05:51;10.60;99.90
57218;DHT22;43078;52.972;6.482;2023-04-01T04:08:17;10.60;99.90
57218;DHT22;43078;52.972;6.482;2023-04-01T04:10:43;10.60;99.90
57218;DHT22;43078;52.972;6.482;2023-04-01T04:13:09;10.60;99.90
57218;DHT22;43078;52.972;6.482;2023-04-01T04:15:35;10.60;99.90
57218;DHT22;43078;52.972;6.482;2023-04-01T04:18:00;10.60;99.90
57218;DHT22;43078;52.972;6.482;2023-04-01T04:20:26;10.70;99.90
57218;DHT22;43078;52.972;6.482;2023-04-01T04:22:51;10.60;99.90
57218;DHT22;43078;52.972;6.482;2023-04-01T04:25:17;10.60;99.90
57218;DHT22;43078;52.972;6.482;2023-04-01T04:27:43;10.60;99.90
57218;DHT22;43078;52.972;6.482;2023-04-01T04:30:09;10.60;99.90
57218;DHT22;43078;52.972;6.482;2023-04-01T04:32:35;10.60;99.90
57218;DHT22;43078;52.972;6.482;2023-04-01T04:35:01;10.60;99.90
57218;DHT22;43078;52.972;6.482;2023-04-01T04:37:27;10.60;99.90
57218;DHT22;43078;52.972;6.482;2023-04-01T04:39:52;10.60;99.90
57218;DHT22;43078;52.972;6.482;2023-04-01T04:42:18;10.60;99.90
57218;DHT22;43078;52.972;6.482;2023-04-01T04:44:43;10.60;99.90
57218;DHT22;43078;52.972;6.482;2023-04-01T04:47:09;10.60;99.90
57218;DHT22;43078;52.972;6.482;2023-04-01T04:49:35;10.60;99.90
57218;DHT22;43078;52.972;6.482;2023-04-01T04:52:01;10.60;99.90
57218;DHT22;43078;52.972;6.482;2023-04-01T04:54:26;10.60;99.90
57218;DHT22;43078;52.972;6.482;2023-04-01T04:56:52;10.50;99.90
57218;DHT22;43078;52.972;6.482;2023-04-01T04:59:18;10.50;99.90
57218;DHT22;43078;52.972;6.482;2023-04-01T05:01:44;10.50;99.90
57218;DHT22;43078;52.972;6.482;2023-04-01T05:04:09;10.60;99.90
57218;DHT22;43078;52.972;6.482;2023-04-01T05:06:35;10.50;99.90
57218;DHT22;43078;52.972;6.482;2023-04-01T05:09:01;10.50;99.90
57218;DHT22;43078;52.972;6.482;2023-04-01T05:11:26;10.50;99.90
57218;DHT22;43078;52.972;6.482;2023-04-01T05:13:52;10.50;99.90
57218;DHT22;43078;52.972;6.482;2023-04-01T05:16:20;10.50;99.90
57218;DHT22;43078;52.972;6.482;2023-04-01T05:18:47;10.50;99.90
57218;DHT22;43078;52.972;6.482;2023-04-01T05:21:14;10.50;99.90
57218;DHT22;43078;52.972;6.482;2023-04-01T05:23:41;10.50;99.90
57218;DHT22;43078;52.972;6.482;2023-04-01T05:26:09;10.50;99.90
57218;DHT22;43078;52.972;6.482;2023-04-01T05:28:35;10.50;99.90
57218;DHT22;43078;52.972;6.482;2023-04-01T05:31:04;10.50;99.90
57218;DHT22;43078;52.972;6.482;2023-04-01T05:33:30;10.50;99.90
57218;DHT22;43078;52.972;6.482;2023-04-01T05:35:56;10.50;99.90
57218;DHT22;43078;52.972;6.482;2023-04-01T05:38:22;10.50;99.90
57218;DHT22;43078;52.972;6.482;2023-04-01T05:40:48;10.50;99.90
57218;DHT22;43078;52.972;6.482;2023-04-01T05:43:14;10.50;99.90
57218;DHT22;43078;52.972;6.482;2023-04-01T05:45:39;10.50;99.90
57218;DHT22;43078;52.972;6.482;2023-04-01T05:48:05;10.50;99.90
57218;DHT22;43078;52.972;6.482;2023-04-01T05:50:31;10.50;99.90
57218;DHT22;43078;52.972;6.482;2023-04-01T05:52:57;10.60;99.90
57218;DHT22;43078;52.972;6.482;2023-04-01T05:55:22;10.50;99.90
57218;DHT22;43078;52.972;6.482;2023-04-01T05:57:48;10.50;99.90
57218;DHT22;43078;52.972;6.482;2023-04-01T06:00:16;10.60;99.90
57218;DHT22;43078;52.972;6.482;2023-04-01T06:02:42;10.50;99.90
57218;DHT22;43078;52.972;6.482;2023-04-01T06:05:18;10.50;99.90
57218;DHT22;43078;52.972;6.482;2023-04-01T06:07:44;10.50;99.90
57218;DHT22;43078;52.972;6.482;2023-04-01T06:10:19;10.50;99.90
57218;DHT22;43078;52.972;6.482;2023-04-01T06:13:05;10.50;99.90
57218;DHT22;43078;52.972;6.482;2023-04-01T06:31:36;10.50;99.90
57218;DHT22;43078;52.972;6.482;2023-04-01T06:48:02;10.50;99.90
57218;DHT22;43078;52.972;6.482;2023-04-01T06:51:26;10.50;99.90
57218;DHT22;43078;52.972;6.482;2023-04-01T06:53:43;10.40;99.90
57218;DHT22;43078;52.972;6.482;2023-04-01T06:56:18;10.40;99.90
57218;DHT22;43078;52.972;6.482;2023-04-01T07:01:27;10.50;99.90
57218;DHT22;43078;52.972;6.482;2023-04-01T07:04:30;10.50;99.90
57218;DHT22;43078;52.972;6.482;2023-04-01T07:07:18;10.50;99.90
57218;DHT22;43078;52.972;6.482;2023-04-01T07:09:50;10.40;99.90
57218;DHT22;43078;52.972;6.482;2023-04-01T07:14:54;10.50;99.90
57218;DHT22;43078;52.972;6.482;2023-04-01T07:17:25;10.50;99.90
57218;DHT22;43078;52.972;6.482;2023-04-01T07:22:56;10.50;99.90
57218;DHT22;43078;52.972;6.482;2023-04-01T07:25:31;10.40;99.90
57218;DHT22;43078;52.972;6.482;2023-04-01T07:27:58;10.50;99.90
57218;DHT22;43078;52.972;6.482;2023-04-01T07:30:28;10.40;99.90
57218;DHT22;43078;52.972;6.482;2023-04-01T07:33:19;10.40;99.90
57218;DHT22;43078;52.972;6.482;2023-04-01T07:39:08;10.40;99.90
57218;DHT22;43078;52.972;6.482;2023-04-01T07:50:20;10.50;99.90
57218;DHT22;43078;52.972;6.482;2023-04-01T07:55:45;10.60;99.90
57218;DHT22;43078;52.972;6.482;2023-04-01T08:01:04;10.60;99.90
57218;DHT22;43078;52.972;6.482;2023-04-01T08:03:51;10.60;99.90
57218;DHT22;43078;52.972;6.482;2023-04-01T08:06:37;10.70;99.90
57218;DHT22;43078;52.972;6.482;2023-04-01T08:09:31;10.70;99.90
57218;DHT22;43078;52.972;6.482;2023-04-01T08:12:04;10.70;99.90
57218;DHT22;43078;52.972;6.482;2023-04-01T08:15:09;10.80;99.90
57218;DHT22;43078;52.972;6.482;2023-04-01T08:22:51;10.80;99.90
57218;DHT22;43078;52.972;6.482;2023-04-01T08:25:24;10.90;99.90
57218;DHT22;43078;52.972;6.482;2023-04-01T08:28:21;10.90;99.90
57218;DHT22;43078;52.972;6.482;2023-04-01T08:33:36;10.90;99.90
57218;DHT22;43078;52.972;6.482;2023-04-01T08:36:24;11.00;99.90
57218;DHT22;43078;52.972;6.482;2023-04-01T08:47:09;11.00;99.90
57218;DHT22;43078;52.972;6.482;2023-04-01T08:52:33;11.10;99.90
57218;DHT22;43078;52.972;6.482;2023-04-01T08:55:27;11.10;99.90
57218;DHT22;43078;52.972;6.482;2023-04-01T09:01:10;11.10;99.90
57218;DHT22;43078;52.972;6.482;2023-04-01T09:06:48;11.10;99.90
57218;DHT22;43078;52.972;6.482;2023-04-01T09:09:41;11.10;99.90
57218;DHT22;43078;52.972;6.482;2023-04-01T09:12:30;11.10;99.90
57218;DHT22;43078;52.972;6.482;2023-04-01T09:15:00;11.10;99.90
57218;DHT22;43078;52.972;6.482;2023-04-01T09:28:28;11.20;99.90
57218;DHT22;43078;52.972;6.482;2023-04-01T09:31:15;11.20;99.90
57218;DHT22;43078;52.972;6.482;2023-04-01T09:39:39;11.30;99.90
57218;DHT22;43078;52.972;6.482;2023-04-01T09:45:00;11.30;99.90
57218;DHT22;43078;52.972;6.482;2023-04-01T09:50:30;11.30;99.90
57218;DHT22;43078;52.972;6.482;2023-04-01T09:58:38;11.40;99.90
57218;DHT22;43078;52.972;6.482;2023-04-01T10:18:14;11.50;99.90
57218;DHT22;43078;52.972;6.482;2023-04-01T10:24:03;11.60;99.90
57218;DHT22;43078;52.972;6.482;2023-04-01T10:41:01;11.60;99.90
57218;DHT22;43078;52.972;6.482;2023-04-01T10:43:51;11.60;99.90
57218;DHT22;43078;52.972;6.482;2023-04-01T10:46:49;11.60;99.90
57218;DHT22;43078;52.972;6.482;2023-04-01T10:58:05;11.50;99.90
57218;DHT22;43078;52.972;6.482;2023-04-01T11:01:03;11.60;99.90
57218;DHT22;43078;52.972;6.482;2023-04-01T11:08:06;11.50;99.90
57218;DHT22;43078;52.972;6.482;2023-04-01T11:13:54;11.50;99.90
57218;DHT22;43078;52.972;6.482;2023-04-01T11:16:42;11.50;99.90
57218;DHT22;43078;52.972;6.482;2023-04-01T11:20:13;11.50;99.90
57218;DHT22;43078;52.972;6.482;2023-04-01T11:33:31;11.50;99.90
57218;DHT22;43078;52.972;6.482;2023-04-01T11:36:10;11.50;99.90
57218;DHT22;43078;52.972;6.482;2023-04-01T11:41:26;11.40;99.90
57218;DHT22;43078;52.972;6.482;2023-04-01T11:44:17;11.40;99.90
57218;DHT22;43078;52.972;6.482;2023-04-01T11:58:47;11.40;99.90
57218;DHT22;43078;52.972;6.482;2023-04-01T12:12:38;11.50;99.90
57218;DHT22;43078;52.972;6.482;2023-04-01T12:21:52;11.50;99.90
57218;DHT22;43078;52.972;6.482;2023-04-01T12:30:12;11.50;99.90
57218;DHT22;43078;52.972;6.482;2023-04-01T12:41:24;11.50;99.90
57218;DHT22;43078;52.972;6.482;2023-04-01T12:44:18;11.50;99.90
57218;DHT22;43078;52.972;6.482;2023-04-01T12:52:13;11.50;99.90
57218;DHT22;43078;52.972;6.482;2023-04-01T13:03:44;11.40;99.90
57218;DHT22;43078;52.972;6.482;2023-04-01T13:25:35;11.40;99.90
57218;DHT22;43078;52.972;6.482;2023-04-01T13:33:43;11.30;99.90
57218;DHT22;43078;52.972;6.482;2023-04-01T13:44:14;11.30;99.90
57218;DHT22;43078;52.972;6.482;2023-04-01T13:52:30;11.20;99.90
57218;DHT22;43078;52.972;6.482;2023-04-01T14:12:35;11.10;99.90
57218;DHT22;43078;52.972;6.482;2023-04-01T14:23:34;11.00;99.90
57218;DHT22;43078;52.972;6.482;2023-04-01T14:26:22;11.10;99.90
57218;DHT22;43078;52.972;6.482;2023-04-01T14:40:52;11.10;99.90
57218;DHT22;43078;52.972;6.482;2023-04-01T14:44:01;11.10;99.90
57218;DHT22;43078;52.972;6.482;2023-04-01T14:57:58;11.00;99.90
57218;DHT22;43078;52.972;6.482;2023-04-01T15:00:24;11.00;99.90
57218;DHT22;43078;52.972;6.482;2023-04-01T15:03:07;11.00;99.90
57218;DHT22;43078;52.972;6.482;2023-04-01T15:27:47;10.90;99.90
57218;DHT22;43078;52.972;6.482;2023-04-01T15:38:52;10.80;99.90
57218;DHT22;43078;52.972;6.482;2023-04-01T15:41:53;10.80;99.90
57218;DHT22;43078;52.972;6.482;2023-04-01T15:53:03;10.70;99.90
57218;DHT22;43078;52.972;6.482;2023-04-01T16:03:49;10.60;99.90
57218;DHT22;43078;52.972;6.482;2023-04-01T16:12:07;10.50;99.90
57218;DHT22;43078;52.972;6.482;2023-04-01T16:17:49;10.50;99.90
57218;DHT22;43078;52.972;6.482;2023-04-01T16:20:44;10.50;99.90
57218;DHT22;43078;52.972;6.482;2023-04-01T16:23:22;10.50;99.90
57218;DHT22;43078;52.972;6.482;2023-04-01T16:34:24;10.50;99.90
57218;DHT22;43078;52.972;6.482;2023-04-01T16:37:21;10.40;99.90
57218;DHT22;43078;52.972;6.482;2023-04-01T16:40:23;10.30;99.90
57218;DHT22;43078;52.972;6.482;2023-04-01T16:42:56;10.30;99.90
57218;DHT22;43078;52.972;6.482;2023-04-01T16:47:56;10.30;99.90
57218;DHT22;43078;52.972;6.482;2023-04-01T16:53:44;10.30;99.90
57218;DHT22;43078;52.972;6.482;2023-04-01T16:56:16;10.30;99.90
57218;DHT22;43078;52.972;6.482;2023-04-01T16:58:59;10.30;99.90
57218;DHT22;43078;52.972;6.482;2023-04-01T17:04:17;10.20;99.90
57218;DHT22;43078;52.972;6.482;2023-04-01T17:07:01;10.20;99.90
57218;DHT22;43078;52.972;6.482;2023-04-01T17:09:50;10.20;99.90
57218;DHT22;43078;52.972;6.482;2023-04-01T17:12:28;10.20;99.90
57218;DHT22;43078;52.972;6.482;2023-04-01T17:15:26;10.20;99.90
57218;DHT22;43078;52.972;6.482;2023-04-01T17:17:58;10.20;99.90
57218;DHT22;43078;52.972;6.482;2023-04-01T17:20:43;10.10;99.90
57218;DHT22;43078;52.972;6.482;2023-04-01T17:23:32;10.10;99.90
57218;DHT22;43078;52.972;6.482;2023-04-01T17:26:34;10.10;99.90
57218;DHT22;43078;52.972;6.482;2023-04-01T17:29:19;10.10;99.90
57218;DHT22;43078;52.972;6.482;2023-04-01T17:32:09;10.10;99.90
57218;DHT22;43078;52.972;6.482;2023-04-01T17:37:28;10.10;99.90
57218;DHT22;43078;52.972;6.482;2023-04-01T17:40:25;10.00;99.90
57218;DHT22;43078;52.972;6.482;2023-04-01T17:43:22;10.00;99.90
57218;DHT22;43078;52.972;6.482;2023-04-01T17:46:00;10.00;99.90
57218;DHT22;43078;52.972;6.482;2023-04-01T17:48:38;9.90;99.90
57218;DHT22;43078;52.972;6.482;2023-04-01T17:51:16;9.90;99.90
57218;DHT22;43078;52.972;6.482;2023-04-01T17:54:20;9.80;99.90
57218;DHT22;43078;52.972;6.482;2023-04-01T18:02:21;9.70;99.90
57218;DHT22;43078;52.972;6.482;2023-04-01T18:05:19;9.70;99.90
57218;DHT22;43078;52.972;6.482;2023-04-01T18:08:12;9.70;99.90
57218;DHT22;43078;52.972;6.482;2023-04-01T18:16:49;9.60;99.90
57218;DHT22;43078;52.972;6.482;2023-04-01T18:21:46;9.60;99.90
57218;DHT22;43078;52.972;6.482;2023-04-01T18:26:41;9.60;99.90
57218;DHT22;43078;52.972;6.482;2023-04-01T18:31:55;9.50;99.90
57218;DHT22;43078;52.972;6.482;2023-04-01T18:34:38;9.50;99.90
57218;DHT22;43078;52.972;6.482;2023-04-01T18:37:19;9.50;99.90
57218;DHT22;43078;52.972;6.482;2023-04-01T18:39:51;9.50;99.90
57218;DHT22;43078;52.972;6.482;2023-04-01T18:47:58;9.40;99.90
57218;DHT22;43078;52.972;6.482;2023-04-01T18:50:38;9.40;99.90
57218;DHT22;43078;52.972;6.482;2023-04-01T18:53:12;9.30;99.90
57218;DHT22;43078;52.972;6.482;2023-04-01T18:55:47;9.30;99.90
57218;DHT22;43078;52.972;6.482;2023-04-01T18:58:32;9.30;99.90
57218;DHT22;43078;52.972;6.482;2023-04-01T19:01:19;9.20;99.90
57218;DHT22;43078;52.972;6.482;2023-04-01T19:04:04;9.20;99.90
57218;DHT22;43078;52.972;6.482;2023-04-01T19:06:50;9.20;99.90
57218;DHT22;43078;52.972;6.482;2023-04-01T19:09:26;9.20;99.90
57218;DHT22;43078;52.972;6.482;2023-04-01T19:17:16;9.10;99.90
57218;DHT22;43078;52.972;6.482;2023-04-01T19:22:56;9.10;99.90
57218;DHT22;43078;52.972;6.482;2023-04-01T19:25:27;9.10;99.90
57218;DHT22;43078;52.972;6.482;2023-04-01T19:28:20;9.00;99.90
57218;DHT22;43078;52.972;6.482;2023-04-01T19:31:04;9.00;99.90
57218;DHT22;43078;52.972;6.482;2023-04-01T19:33:46;9.00;99.90
57218;DHT22;43078;52.972;6.482;2023-04-01T19:36:29;9.00;99.90
57218;DHT22;43078;52.972;6.482;2023-04-01T19:39:02;8.90;99.90
57218;DHT22;43078;52.972;6.482;2023-04-01T19:44:39;8.90;99.90
57218;DHT22;43078;52.972;6.482;2023-04-01T19:52:37;8.80;99.90
57218;DHT22;43078;52.972;6.482;2023-04-01T19:55:30;8.80;99.90
57218;DHT22;43078;52.972;6.482;2023-04-01T20:00:31;8.80;99.90
57218;DHT22;43078;52.972;6.482;2023-04-01T20:03:50;8.80;99.90
57218;DHT22;43078;52.972;6.482;2023-04-01T20:06:28;8.80;99.90
57218;DHT22;43078;52.972;6.482;2023-04-01T20:12:35;8.70;99.90
57218;DHT22;43078;52.972;6.482;2023-04-01T20:15:35;8.70;99.90
57218;DHT22;43078;52.972;6.482;2023-04-01T20:20:55;8.60;99.90
57218;DHT22;43078;52.972;6.482;2023-04-01T20:23:42;8.60;99.90
57218;DHT22;43078;52.972;6.482;2023-04-01T20:26:11;8.60;99.90
57218;DHT22;43078;52.972;6.482;2023-04-01T20:31:43;8.60;99.90
57218;DHT22;43078;52.972;6.482;2023-04-01T20:34:50;8.50;99.90
57218;DHT22;43078;52.972;6.482;2023-04-01T20:37:30;8.50;99.90
57218;DHT22;43078;52.972;6.482;2023-04-01T20:45:59;8.40;99.90
57218;DHT22;43078;52.972;6.482;2023-04-01T20:48:49;8.40;99.90
57218;DHT22;43078;52.972;6.482;2023-04-01T20:51:24;8.30;99.90
57218;DHT22;43078;52.972;6.482;2023-04-01T21:02:03;8.30;99.90
57218;DHT22;43078;52.972;6.482;2023-04-01T21:12:36;8.20;99.90
57218;DHT22;43078;52.972;6.482;2023-04-01T21:18:24;8.10;99.90
57218;DHT22;43078;52.972;6.482;2023-04-01T21:21:20;8.20;99.90
57218;DHT22;43078;52.972;6.482;2023-04-01T21:23:57;8.10;99.90
57218;DHT22;43078;52.972;6.482;2023-04-01T21:26:49;8.10;99.90
57218;DHT22;43078;52.972;6.482;2023-04-01T21:40:44;8.00;99.90
57218;DHT22;43078;52.972;6.482;2023-04-01T21:54:49;7.90;99.90
57218;DHT22;43078;52.972;6.482;2023-04-01T22:00:36;7.90;99.90
57218;DHT22;43078;52.972;6.482;2023-04-01T22:08:45;7.90;99.90
57218;DHT22;43078;52.972;6.482;2023-04-01T22:14:19;7.80;99.90
57218;DHT22;43078;52.972;6.482;2023-04-01T22:17:14;7.80;99.90
57218;DHT22;43078;52.972;6.482;2023-04-01T22:25:49;7.80;99.90
57218;DHT22;43078;52.972;6.482;2023-04-01T22:28:24;7.70;99.90
57218;DHT22;43078;52.972;6.482;2023-04-01T22:31:01;7.70;99.90
57218;DHT22;43078;52.972;6.482;2023-04-01T22:33:45;7.70;99.90
57218;DHT22;43078;52.972;6.482;2023-04-01T22:45:01;7.70;99.90
57218;DHT22;43078;52.972;6.482;2023-04-01T22:47:41;7.60;99.90
57218;DHT22;43078;52.972;6.482;2023-04-01T22:50:23;7.60;99.90
57218;DHT22;43078;52.972;6.482;2023-04-01T22:52:58;7.60;99.90
57218;DHT22;43078;52.972;6.482;2023-04-01T22:55:30;7.60;99.90
57218;DHT22;43078;52.972;6.482;2023-04-01T22:58:03;7.60;99.90
57218;DHT22;43078;52.972;6.482;2023-04-01T23:00:44;7.60;99.90
57218;DHT22;43078;52.972;6.482;2023-04-01T23:03:34;7.60;99.90
57218;DHT22;43078;52.972;6.482;2023-04-01T23:06:04;7.60;99.90
57218;DHT22;43078;52.972;6.482;2023-04-01T23:11:23;7.50;99.90
57218;DHT22;43078;52.972;6.482;2023-04-01T23:16:53;7.50;99.90
57218;DHT22;43078;52.972;6.482;2023-04-01T23:27:33;7.50;99.90
57218;DHT22;43078;52.972;6.482;2023-04-01T23:30:03;7.40;99.90
57218;DHT22;43078;52.972;6.482;2023-04-01T23:32:29;7.40;99.90
57218;DHT22;43078;52.972;6.482;2023-04-01T23:34:57;7.40;99.90
57218;DHT22;43078;52.972;6.482;2023-04-01T23:37:24;7.40;99.90
57218;DHT22;43078;52.972;6.482;2023-04-01T23:39:52;7.40;99.90
57218;DHT22;43078;52.972;6.482;2023-04-01T23:42:24;7.40;99.90
57218;DHT22;43078;52.972;6.482;2023-04-01T23:44:54;7.40;99.90
57218;DHT22;43078;52.972;6.482;2023-04-01T23:47:36;7.40;99.90
57218;DHT22;43078;52.972;6.482;2023-04-01T23:50:20;7.30;99.90
57218;DHT22;43078;52.972;6.482;2023-04-01T23:52:52;7.30;99.90
57218;DHT22;43078;52.972;6.482;2023-04-01T23:55:27;7.30;99.90
